sensor_id;sensor_type;location;lat;lon;timestamp;pressure;altitude;pressure_sealevel;temperature;humidity
18795;BME280;29610;49.022;12.114;2023-06-04T00:00:09;97791.63;;;15.02;87.47
18795;BME280;29610;49.022;12.114;2023-06-04T00:02:38;97788.78;;;14.99;89.47
18795;BME280;29610;49.022;12.114;2023-06-04T00:05:08;97785.41;;;14.90;87.93
18795;BME280;29610;49.022;12.114;2023-06-04T00:07:37;97788.25;;;14.93;89.62
18795;BME280;29610;49.022;12.114;2023-06-04T00:10:07;97782.34;;;14.79;88.40
18795;BME280;29610;49.022;12.114;2023-06-04T00:12:36;97780.75;;;14.78;89.82
18795;BME280;29610;49.022;12.114;2023-06-04T00:15:06;97778.59;;;14.84;90.89
18795;BME280;29610;49.022;12.114;2023-06-04T00:17:36;97779.84;;;14.86;89.63
18795;BME280;29610;49.022;12.114;2023-06-04T00:20:06;97771.63;;;14.86;89.71
18795;BME280;29610;49.022;12.114;2023-06-04T00:22:35;97781.13;;;14.77;92.88
18795;BME280;29610;49.022;12.114;2023-06-04T00:25:04;97771.44;;;14.67;91.92
18795;BME280;29610;49.022;12.114;2023-06-04T00:27:33;97768.94;;;14.74;92.32
18795;BME280;29610;49.022;12.114;2023-06-04T00:30:02;97771.56;;;14.58;94.00
18795;BME280;29610;49.022;12.114;2023-06-04T00:32:32;97765.69;;;14.56;94.89
18795;BME280;29610;49.022;12.114;2023-06-04T00:35:02;97766.69;;;14.52;97.89
18795;BME280;29610;49.022;12.114;2023-06-04T00:37:31;97774.47;;;14.50;100.00
18795;BME280;29610;49.022;12.114;2023-06-04T00:40:00;97770.09;;;14.49;99.44
18795;BME280;29610;49.022;12.114;2023-06-04T00:42:29;97770.38;;;14.32;100.00
18795;BME280;29610;49.022;12.114;2023-06-04T00:44:58;97778.13;;;14.42;100.00
18795;BME280;29610;49.022;12.114;2023-06-04T00:47:27;97768.19;;;14.13;100.00
18795;BME280;29610;49.022;12.114;2023-06-04T00:49:57;97773.09;;;14.32;100.00
18795;BME280;29610;49.022;12.114;2023-06-04T00:52:28;97772.09;;;14.24;100.00
18795;BME280;29610;49.022;12.114;2023-06-04T00:54:57;97774.34;;;14.34;100.00
18795;BME280;29610;49.022;12.114;2023-06-04T00:57:26;97772.84;;;14.13;100.00
18795;BME280;29610;49.022;12.114;2023-06-04T00:59:55;97769.31;;;14.12;100.00
18795;BME280;29610;49.022;12.114;2023-06-04T01:02:26;97770.13;;;14.13;100.00
18795;BME280;29610;49.022;12.114;2023-06-04T01:05:04;97776.75;;;14.12;100.00
18795;BME280;29610;49.022;12.114;2023-06-04T01:07:37;97773.75;;;14.17;100.00
18795;BME280;29610;49.022;12.114;2023-06-04T01:10:08;97784.13;;;14.11;100.00
18795;BME280;29610;49.022;12.114;2023-06-04T01:12:40;97778.78;;;14.15;100.00
18795;BME280;29610;49.022;12.114;2023-06-04T01:15:11;97784.78;;;13.84;100.00
18795;BME280;29610;49.022;12.114;2023-06-04T01:17:42;97778.09;;;13.94;100.00
18795;BME280;29610;49.022;12.114;2023-06-04T01:20:25;97779.63;;;13.71;100.00
18795;BME280;29610;49.022;12.114;2023-06-04T01:23:32;97782.84;;;13.61;100.00
18795;BME280;29610;49.022;12.114;2023-06-04T01:26:03;97790.53;;;13.47;100.00
18795;BME280;29610;49.022;12.114;2023-06-04T01:28:34;97786.19;;;13.46;100.00
18795;BME280;29610;49.022;12.114;2023-06-04T01:31:04;97781.69;;;13.62;100.00
18795;BME280;29610;49.022;12.114;2023-06-04T01:33:35;97776.91;;;13.59;100.00
18795;BME280;29610;49.022;12.114;2023-06-04T01:36:04;97784.06;;;13.51;100.00
18795;BME280;29610;49.022;12.114;2023-06-04T01:38:34;97783.81;;;13.44;100.00
18795;BME280;29610;49.022;12.114;2023-06-04T01:41:04;97780.91;;;13.29;100.00
18795;BME280;29610;49.022;12.114;2023-06-04T01:43:33;97786.09;;;13.09;100.00
18795;BME280;29610;49.022;12.114;2023-06-04T01:46:03;97782.91;;;12.99;100.00
18795;BME280;29610;49.022;12.114;2023-06-04T01:48:32;97794.13;;;13.06;100.00
18795;BME280;29610;49.022;12.114;2023-06-04T01:51:01;97790.00;;;13.00;100.00
18795;BME280;29610;49.022;12.114;2023-06-04T01:53:30;97795.38;;;13.08;100.00
18795;BME280;29610;49.022;12.114;2023-06-04T01:56:00;97790.53;;;13.14;100.00
18795;BME280;29610;49.022;12.114;2023-06-04T01:58:29;97797.72;;;13.18;100.00
18795;BME280;29610;49.022;12.114;2023-06-04T02:00:59;97791.75;;;13.04;100.00
18795;BME280;29610;49.022;12.114;2023-06-04T02:03:30;97800.25;;;13.03;100.00
18795;BME280;29610;49.022;12.114;2023-06-04T02:06:04;97799.97;;;12.96;100.00
18795;BME280;29610;49.022;12.114;2023-06-04T02:08:35;97800.44;;;12.77;100.00
18795;BME280;29610;49.022;12.114;2023-06-04T02:11:05;97803.84;;;12.74;100.00
18795;BME280;29610;49.022;12.114;2023-06-04T02:13:35;97813.88;;;12.62;100.00
18795;BME280;29610;49.022;12.114;2023-06-04T02:16:04;97806.41;;;12.71;100.00
18795;BME280;29610;49.022;12.114;2023-06-04T02:18:33;97812.25;;;12.61;100.00
18795;BME280;29610;49.022;12.114;2023-06-04T02:21:03;97805.94;;;12.69;100.00
18795;BME280;29610;49.022;12.114;2023-06-04T02:23:34;97809.63;;;12.73;100.00
18795;BME280;29610;49.022;12.114;2023-06-04T02:26:05;97807.72;;;12.44;100.00
18795;BME280;29610;49.022;12.114;2023-06-04T02:28:34;97809.31;;;12.16;100.00
18795;BME280;29610;49.022;12.114;2023-06-04T02:31:02;97806.59;;;12.16;100.00
18795;BME280;29610;49.022;12.114;2023-06-04T02:33:32;97811.63;;;12.06;100.00
18795;BME280;29610;49.022;12.114;2023-06-04T02:36:01;97816.38;;;12.17;100.00
18795;BME280;29610;49.022;12.114;2023-06-04T02:38:30;97811.44;;;12.11;100.00
18795;BME280;29610;49.022;12.114;2023-06-04T02:40:59;97819.59;;;11.73;100.00
18795;BME280;29610;49.022;12.114;2023-06-04T02:43:29;97815.63;;;11.53;100.00
18795;BME280;29610;49.022;12.114;2023-06-04T02:45:57;97815.25;;;11.81;100.00
18795;BME280;29610;49.022;12.114;2023-06-04T02:48:26;97811.50;;;11.94;100.00
18795;BME280;29610;49.022;12.114;2023-06-04T02:50:54;97816.75;;;12.07;100.00
18795;BME280;29610;49.022;12.114;2023-06-04T02:53:24;97816.75;;;12.07;100.00
18795;BME280;29610;49.022;12.114;2023-06-04T02:55:52;97816.75;;;12.07;100.00
18795;BME280;29610;49.022;12.114;2023-06-04T02:58:21;97826.41;;;11.96;100.00
18795;BME280;29610;49.022;12.114;2023-06-04T03:00:54;97820.84;;;11.84;100.00
18795;BME280;29610;49.022;12.114;2023-06-04T03:03:22;97824.06;;;11.77;100.00
18795;BME280;29610;49.022;12.114;2023-06-04T03:05:51;97823.88;;;11.82;100.00
18795;BME280;29610;49.022;12.114;2023-06-04T03:08:21;97821.66;;;11.76;100.00
18795;BME280;29610;49.022;12.114;2023-06-04T03:10:51;97825.84;;;11.65;100.00
18795;BME280;29610;49.022;12.114;2023-06-04T03:13:19;97830.03;;;11.71;100.00
18795;BME280;29610;49.022;12.114;2023-06-04T03:15:48;97836.56;;;11.70;100.00
18795;BME280;29610;49.022;12.114;2023-06-04T03:18:18;97833.56;;;11.63;100.00
18795;BME280;29610;49.022;12.114;2023-06-04T03:20:48;97833.88;;;11.44;100.00
18795;BME280;29610;49.022;12.114;2023-06-04T03:23:17;97834.03;;;11.48;100.00
18795;BME280;29610;49.022;12.114;2023-06-04T03:25:46;97833.41;;;11.51;100.00
18795;BME280;29610;49.022;12.114;2023-06-04T03:28:14;97835.16;;;11.64;100.00
18795;BME280;29610;49.022;12.114;2023-06-04T03:30:45;97833.06;;;11.61;100.00
18795;BME280;29610;49.022;12.114;2023-06-04T03:33:15;97840.91;;;11.54;100.00
18795;BME280;29610;49.022;12.114;2023-06-04T03:35:45;97844.75;;;11.61;100.00
18795;BME280;29610;49.022;12.114;2023-06-04T03:38:15;97845.22;;;11.72;100.00
18795;BME280;29610;49.022;12.114;2023-06-04T03:40:44;97845.25;;;11.63;100.00
18795;BME280;29610;49.022;12.114;2023-06-04T03:43:14;97853.22;;;11.77;100.00
18795;BME280;29610;49.022;12.114;2023-06-04T03:45:43;97857.53;;;11.78;100.00
18795;BME280;29610;49.022;12.114;2023-06-04T03:48:12;97853.88;;;11.74;100.00
18795;BME280;29610;49.022;12.114;2023-06-04T03:50:43;97856.75;;;11.60;100.00
18795;BME280;29610;49.022;12.114;2023-06-04T03:53:16;97856.91;;;11.55;100.00
18795;BME280;29610;49.022;12.114;2023-06-04T03:55:44;97850.50;;;11.68;100.00
18795;BME280;29610;49.022;12.114;2023-06-04T03:58:13;97853.69;;;11.62;100.00
18795;BME280;29610;49.022;12.114;2023-06-04T04:00:46;97857.72;;;11.47;100.00
18795;BME280;29610;49.022;12.114;2023-06-04T04:03:16;97853.25;;;11.43;100.00
18795;BME280;29610;49.022;12.114;2023-06-04T04:05:45;97858.69;;;11.43;100.00
18795;BME280;29610;49.022;12.114;2023-06-04T04:08:15;97856.78;;;11.52;100.00
18795;BME280;29610;49.022;12.114;2023-06-04T04:10:45;97855.16;;;11.68;100.00
18795;BME280;29610;49.022;12.114;2023-06-04T04:13:13;97853.22;;;11.68;100.00
18795;BME280;29610;49.022;12.114;2023-06-04T04:15:42;97854.19;;;11.72;100.00
18795;BME280;29610;49.022;12.114;2023-06-04T04:18:12;97856.78;;;12.07;100.00
18795;BME280;29610;49.022;12.114;2023-06-04T04:20:41;97852.00;;;12.04;100.00
18795;BME280;29610;49.022;12.114;2023-06-04T04:23:10;97850.63;;;12.27;100.00
18795;BME280;29610;49.022;12.114;2023-06-04T04:25:44;97857.50;;;12.33;100.00
18795;BME280;29610;49.022;12.114;2023-06-04T04:28:13;97851.09;;;12.58;100.00
18795;BME280;29610;49.022;12.114;2023-06-04T04:30:41;97855.53;;;12.62;100.00
18795;BME280;29610;49.022;12.114;2023-06-04T04:33:13;97849.91;;;12.38;100.00
18795;BME280;29610;49.022;12.114;2023-06-04T04:35:45;97858.75;;;12.64;100.00
18795;BME280;29610;49.022;12.114;2023-06-04T04:38:17;97856.69;;;12.61;100.00
18795;BME280;29610;49.022;12.114;2023-06-04T04:40:54;97860.81;;;12.67;100.00
18795;BME280;29610;49.022;12.114;2023-06-04T04:43:31;97859.38;;;12.70;100.00
18795;BME280;29610;49.022;12.114;2023-06-04T04:46:07;97862.94;;;12.62;100.00
18795;BME280;29610;49.022;12.114;2023-06-04T04:48:35;97855.66;;;12.74;100.00
18795;BME280;29610;49.022;12.114;2023-06-04T04:51:06;97864.69;;;12.66;100.00
18795;BME280;29610;49.022;12.114;2023-06-04T04:53:35;97858.28;;;12.62;100.00
18795;BME280;29610;49.022;12.114;2023-06-04T04:56:06;97859.97;;;12.75;100.00
18795;BME280;29610;49.022;12.114;2023-06-04T04:58:38;97854.09;;;13.14;100.00
18795;BME280;29610;49.022;12.114;2023-06-04T05:01:07;97844.63;;;13.12;100.00
18795;BME280;29610;49.022;12.114;2023-06-04T05:03:37;97852.69;;;13.29;100.00
18795;BME280;29610;49.022;12.114;2023-06-04T05:06:07;97862.53;;;13.21;100.00
18795;BME280;29610;49.022;12.114;2023-06-04T05:08:36;97862.53;;;13.21;100.00
18795;BME280;29610;49.022;12.114;2023-06-04T05:11:07;97863.66;;;13.20;100.00
18795;BME280;29610;49.022;12.114;2023-06-04T05:13:37;97870.81;;;13.46;100.00
18795;BME280;29610;49.022;12.114;2023-06-04T05:16:06;97870.91;;;13.70;100.00
18795;BME280;29610;49.022;12.114;2023-06-04T05:18:38;97880.06;;;13.86;100.00
18795;BME280;29610;49.022;12.114;2023-06-04T05:21:11;97883.28;;;14.00;100.00
18795;BME280;29610;49.022;12.114;2023-06-04T05:23:46;97876.03;;;14.16;100.00
18795;BME280;29610;49.022;12.114;2023-06-04T05:26:19;97877.44;;;14.46;100.00
18795;BME280;29610;49.022;12.114;2023-06-04T05:28:51;97881.78;;;14.47;100.00
18795;BME280;29610;49.022;12.114;2023-06-04T05:31:21;97878.56;;;14.93;100.00
18795;BME280;29610;49.022;12.114;2023-06-04T05:33:55;97879.47;;;14.85;100.00
18795;BME280;29610;49.022;12.114;2023-06-04T05:36:26;97884.81;;;14.94;100.00
18795;BME280;29610;49.022;12.114;2023-06-04T05:38:58;97885.50;;;14.91;100.00
18795;BME280;29610;49.022;12.114;2023-06-04T05:41:43;97884.41;;;15.31;100.00
18795;BME280;29610;49.022;12.114;2023-06-04T05:44:13;97881.69;;;15.59;100.00
18795;BME280;29610;49.022;12.114;2023-06-04T05:46:42;97882.97;;;15.49;100.00
18795;BME280;29610;49.022;12.114;2023-06-04T05:49:12;97881.50;;;15.52;100.00
18795;BME280;29610;49.022;12.114;2023-06-04T05:51:41;97891.06;;;15.58;100.00
18795;BME280;29610;49.022;12.114;2023-06-04T05:54:10;97889.28;;;15.38;100.00
18795;BME280;29610;49.022;12.114;2023-06-04T05:56:43;97896.28;;;15.63;100.00
18795;BME280;29610;49.022;12.114;2023-06-04T05:59:13;97889.50;;;15.72;100.00
18795;BME280;29610;49.022;12.114;2023-06-04T06:01:42;97898.50;;;16.00;100.00
18795;BME280;29610;49.022;12.114;2023-06-04T06:04:11;97890.19;;;15.97;100.00
18795;BME280;29610;49.022;12.114;2023-06-04T06:06:42;97897.28;;;16.13;100.00
18795;BME280;29610;49.022;12.114;2023-06-04T06:09:16;97901.31;;;16.47;100.00
18795;BME280;29610;49.022;12.114;2023-06-04T06:11:47;97894.13;;;16.74;100.00
18795;BME280;29610;49.022;12.114;2023-06-04T06:14:16;97892.13;;;17.05;100.00
18795;BME280;29610;49.022;12.114;2023-06-04T06:16:44;97902.53;;;16.81;100.00
18795;BME280;29610;49.022;12.114;2023-06-04T06:19:14;97908.56;;;16.71;100.00
18795;BME280;29610;49.022;12.114;2023-06-04T06:21:44;97902.56;;;16.50;100.00
18795;BME280;29610;49.022;12.114;2023-06-04T06:24:14;97905.31;;;17.00;100.00
18795;BME280;29610;49.022;12.114;2023-06-04T06:26:43;97906.00;;;17.12;100.00
18795;BME280;29610;49.022;12.114;2023-06-04T06:29:15;97905.28;;;17.15;100.00
18795;BME280;29610;49.022;12.114;2023-06-04T06:31:44;97912.25;;;17.28;100.00
18795;BME280;29610;49.022;12.114;2023-06-04T06:34:13;97914.47;;;17.58;100.00
18795;BME280;29610;49.022;12.114;2023-06-04T06:36:42;97917.22;;;17.77;100.00
18795;BME280;29610;49.022;12.114;2023-06-04T06:39:11;97917.00;;;18.04;100.00
18795;BME280;29610;49.022;12.114;2023-06-04T06:41:40;97918.03;;;17.77;100.00
18795;BME280;29610;49.022;12.114;2023-06-04T06:44:15;97925.66;;;18.25;100.00
18795;BME280;29610;49.022;12.114;2023-06-04T06:46:44;97923.81;;;18.33;100.00
18795;BME280;29610;49.022;12.114;2023-06-04T06:49:13;97922.69;;;18.56;100.00
18795;BME280;29610;49.022;12.114;2023-06-04T06:51:41;97914.59;;;18.67;100.00
18795;BME280;29610;49.022;12.114;2023-06-04T06:54:10;97917.31;;;18.41;100.00
18795;BME280;29610;49.022;12.114;2023-06-04T06:56:39;97929.31;;;18.33;100.00
18795;BME280;29610;49.022;12.114;2023-06-04T07:02:49;97921.63;;;18.64;100.00
18795;BME280;29610;49.022;12.114;2023-06-04T07:05:43;97921.53;;;19.06;100.00
18795;BME280;29610;49.022;12.114;2023-06-04T07:08:20;97918.44;;;18.85;100.00
18795;BME280;29610;49.022;12.114;2023-06-04T07:11:11;97922.69;;;19.05;100.00
18795;BME280;29610;49.022;12.114;2023-06-04T07:14:10;97927.41;;;19.05;100.00
18795;BME280;29610;49.022;12.114;2023-06-04T07:16:49;97922.13;;;18.70;100.00
18795;BME280;29610;49.022;12.114;2023-06-04T07:19:55;97917.38;;;19.45;100.00
18795;BME280;29610;49.022;12.114;2023-06-04T07:22:34;97921.16;;;19.63;98.43
18795;BME280;29610;49.022;12.114;2023-06-04T07:25:16;97925.81;;;19.56;98.62
18795;BME280;29610;49.022;12.114;2023-06-04T07:28:06;97920.88;;;20.05;96.92
18795;BME280;29610;49.022;12.114;2023-06-04T07:30:44;97921.75;;;20.12;95.81
18795;BME280;29610;49.022;12.114;2023-06-04T07:33:19;97919.69;;;20.06;96.49
18795;BME280;29610;49.022;12.114;2023-06-04T07:36:08;97923.03;;;20.55;94.03
18795;BME280;29610;49.022;12.114;2023-06-04T07:38:49;97917.50;;;20.18;100.00
18795;BME280;29610;49.022;12.114;2023-06-04T07:41:31;97917.84;;;20.54;91.48
18795;BME280;29610;49.022;12.114;2023-06-04T07:44:15;97912.91;;;20.33;88.70
18795;BME280;29610;49.022;12.114;2023-06-04T07:47:06;97909.00;;;20.34;89.45
18795;BME280;29610;49.022;12.114;2023-06-04T07:49:53;97904.88;;;21.05;85.92
18795;BME280;29610;49.022;12.114;2023-06-04T07:53:51;97906.16;;;21.83;80.32
18795;BME280;29610;49.022;12.114;2023-06-04T07:57:44;97898.16;;;21.70;74.63
18795;BME280;29610;49.022;12.114;2023-06-04T08:01:05;97897.69;;;21.54;76.07
18795;BME280;29610;49.022;12.114;2023-06-04T08:05:03;97896.69;;;21.22;74.63
18795;BME280;29610;49.022;12.114;2023-06-04T08:09:03;97898.38;;;22.30;72.56
18795;BME280;29610;49.022;12.114;2023-06-04T08:11:44;97899.94;;;22.24;75.43
18795;BME280;29610;49.022;12.114;2023-06-04T08:14:27;97889.28;;;22.44;69.43
18795;BME280;29610;49.022;12.114;2023-06-04T08:17:09;97887.28;;;23.25;63.46
18795;BME280;29610;49.022;12.114;2023-06-04T08:19:47;97894.78;;;23.46;72.02
18795;BME280;29610;49.022;12.114;2023-06-04T08:22:43;97885.00;;;24.20;58.16
18795;BME280;29610;49.022;12.114;2023-06-04T08:25:33;97882.72;;;24.67;56.11
18795;BME280;29610;49.022;12.114;2023-06-04T08:28:37;97886.03;;;24.44;54.16
18795;BME280;29610;49.022;12.114;2023-06-04T08:31:24;97900.78;;;23.30;58.49
18795;BME280;29610;49.022;12.114;2023-06-04T08:34:24;97892.63;;;24.06;55.68
18795;BME280;29610;49.022;12.114;2023-06-04T08:37:05;97896.00;;;24.38;52.55
18795;BME280;29610;49.022;12.114;2023-06-04T08:39:58;97904.31;;;23.52;53.99
18795;BME280;29610;49.022;12.114;2023-06-04T08:43:37;97904.47;;;24.13;58.10
18795;BME280;29610;49.022;12.114;2023-06-04T08:46:50;97898.97;;;24.65;52.63
18795;BME280;29610;49.022;12.114;2023-06-04T08:50:09;97898.41;;;23.32;53.31
18795;BME280;29610;49.022;12.114;2023-06-04T08:53:23;97895.22;;;23.37;57.85
18795;BME280;29610;49.022;12.114;2023-06-04T08:56:33;97900.78;;;23.37;56.21
18795;BME280;29610;49.022;12.114;2023-06-04T09:00:37;97892.25;;;23.93;48.13
18795;BME280;29610;49.022;12.114;2023-06-04T09:03:40;97893.44;;;24.68;50.91
18795;BME280;29610;49.022;12.114;2023-06-04T09:06:33;97893.59;;;25.72;48.23
18795;BME280;29610;49.022;12.114;2023-06-04T09:10:21;97894.84;;;26.58;46.67
18795;BME280;29610;49.022;12.114;2023-06-04T09:13:43;97896.72;;;27.14;42.59
18795;BME280;29610;49.022;12.114;2023-06-04T09:17:04;97891.88;;;26.72;43.98
18795;BME280;29610;49.022;12.114;2023-06-04T09:21:07;97886.34;;;26.69;43.38
18795;BME280;29610;49.022;12.114;2023-06-04T09:25:19;97883.25;;;26.07;44.56
18795;BME280;29610;49.022;12.114;2023-06-04T09:28:21;97878.41;;;25.77;45.50
18795;BME280;29610;49.022;12.114;2023-06-04T09:31:20;97880.38;;;26.14;44.60
18795;BME280;29610;49.022;12.114;2023-06-04T09:34:39;97878.59;;;27.03;42.85
18795;BME280;29610;49.022;12.114;2023-06-04T09:38:20;97881.75;;;26.29;43.98
18795;BME280;29610;49.022;12.114;2023-06-04T09:42:00;97877.00;;;26.26;42.84
18795;BME280;29610;49.022;12.114;2023-06-04T09:45:12;97880.13;;;25.67;42.03
18795;BME280;29610;49.022;12.114;2023-06-04T09:48:24;97869.63;;;25.82;41.29
18795;BME280;29610;49.022;12.114;2023-06-04T09:52:02;97874.53;;;25.71;40.02
18795;BME280;29610;49.022;12.114;2023-06-04T09:55:37;97869.34;;;24.99;41.30
18795;BME280;29610;49.022;12.114;2023-06-04T10:02:46;97863.31;;;25.78;44.09
18795;BME280;29610;49.022;12.114;2023-06-04T10:06:15;97867.63;;;26.92;41.26
18795;BME280;29610;49.022;12.114;2023-06-04T10:10:27;97861.88;;;27.03;41.26
18795;BME280;29610;49.022;12.114;2023-06-04T10:14:58;97842.09;;;28.83;38.98
18795;BME280;29610;49.022;12.114;2023-06-04T10:19:00;97844.72;;;28.74;39.05
18795;BME280;29610;49.022;12.114;2023-06-04T10:22:00;97848.16;;;27.12;41.05
18795;BME280;29610;49.022;12.114;2023-06-04T10:32:18;97858.50;;;26.39;41.07
18795;BME280;29610;49.022;12.114;2023-06-04T10:35:16;97857.63;;;25.55;40.77
18795;BME280;29610;49.022;12.114;2023-06-04T10:39:40;97850.75;;;27.65;37.79
18795;BME280;29610;49.022;12.114;2023-06-04T10:44:00;97843.41;;;29.10;36.44
18795;BME280;29610;49.022;12.114;2023-06-04T10:47:59;97845.28;;;27.78;36.49
18795;BME280;29610;49.022;12.114;2023-06-04T10:52:13;97844.91;;;27.56;37.16
18795;BME280;29610;49.022;12.114;2023-06-04T10:55:49;97846.31;;;27.25;36.99
18795;BME280;29610;49.022;12.114;2023-06-04T11:08:14;97836.34;;;28.74;35.07
18795;BME280;29610;49.022;12.114;2023-06-04T11:10:45;97837.03;;;27.08;37.59
18795;BME280;29610;49.022;12.114;2023-06-04T11:13:14;97845.34;;;26.89;37.79
18795;BME280;29610;49.022;12.114;2023-06-04T11:15:45;97845.53;;;25.68;38.86
18795;BME280;29610;49.022;12.114;2023-06-04T11:18:18;97832.41;;;26.29;37.82
18795;BME280;29610;49.022;12.114;2023-06-04T11:20:48;97833.31;;;27.58;36.86
18795;BME280;29610;49.022;12.114;2023-06-04T11:23:19;97839.31;;;27.37;39.80
18795;BME280;29610;49.022;12.114;2023-06-04T11:25:53;97842.53;;;27.35;38.57
18795;BME280;29610;49.022;12.114;2023-06-04T11:28:22;97836.97;;;27.74;39.19
18795;BME280;29610;49.022;12.114;2023-06-04T11:30:57;97844.63;;;27.31;37.05
18795;BME280;29610;49.022;12.114;2023-06-04T11:33:26;97836.03;;;27.42;36.39
18795;BME280;29610;49.022;12.114;2023-06-04T11:35:56;97831.69;;;28.67;36.29
18795;BME280;29610;49.022;12.114;2023-06-04T11:38:26;97840.25;;;28.24;37.45
18795;BME280;29610;49.022;12.114;2023-06-04T11:40:57;97836.19;;;28.29;36.63
18795;BME280;29610;49.022;12.114;2023-06-04T11:43:27;97833.19;;;28.20;35.52
18795;BME280;29610;49.022;12.114;2023-06-04T11:45:57;97833.56;;;28.22;40.32
18795;BME280;29610;49.022;12.114;2023-06-04T11:48:26;97826.78;;;27.84;36.11
18795;BME280;29610;49.022;12.114;2023-06-04T11:50:56;97822.97;;;28.65;35.34
18795;BME280;29610;49.022;12.114;2023-06-04T11:53:28;97832.53;;;29.12;33.94
18795;BME280;29610;49.022;12.114;2023-06-04T11:55:58;97826.69;;;29.64;34.66
18795;BME280;29610;49.022;12.114;2023-06-04T11:58:27;97824.06;;;29.73;33.77
18795;BME280;29610;49.022;12.114;2023-06-04T12:00:56;97813.16;;;29.62;33.48
18795;BME280;29610;49.022;12.114;2023-06-04T12:03:34;97825.25;;;29.59;35.36
18795;BME280;29610;49.022;12.114;2023-06-04T12:06:13;97817.69;;;29.44;34.02
18795;BME280;29610;49.022;12.114;2023-06-04T12:08:53;97817.38;;;29.95;35.79
18795;BME280;29610;49.022;12.114;2023-06-04T12:11:30;97815.03;;;29.94;33.24
18795;BME280;29610;49.022;12.114;2023-06-04T12:14:03;97816.56;;;29.41;35.66
18795;BME280;29610;49.022;12.114;2023-06-04T12:16:33;97800.63;;;30.33;35.76
18795;BME280;29610;49.022;12.114;2023-06-04T12:19:07;97804.88;;;30.38;37.11
18795;BME280;29610;49.022;12.114;2023-06-04T12:21:38;97804.44;;;30.39;34.29
18795;BME280;29610;49.022;12.114;2023-06-04T12:24:12;97806.84;;;29.58;37.21
18795;BME280;29610;49.022;12.114;2023-06-04T12:26:42;97805.88;;;28.27;35.64
18795;BME280;29610;49.022;12.114;2023-06-04T12:29:17;97809.25;;;28.71;37.92
18795;BME280;29610;49.022;12.114;2023-06-04T12:31:47;97799.53;;;29.07;36.27
18795;BME280;29610;49.022;12.114;2023-06-04T12:34:16;97801.06;;;30.57;40.41
18795;BME280;29610;49.022;12.114;2023-06-04T12:36:45;97793.25;;;31.20;34.95
18795;BME280;29610;49.022;12.114;2023-06-04T12:39:15;97786.31;;;30.90;32.19
18795;BME280;29610;49.022;12.114;2023-06-04T12:41:46;97781.97;;;30.64;34.19
18795;BME280;29610;49.022;12.114;2023-06-04T12:44:14;97790.53;;;29.28;33.55
18795;BME280;29610;49.022;12.114;2023-06-04T12:46:43;97792.50;;;28.19;36.56
18795;BME280;29610;49.022;12.114;2023-06-04T12:49:13;97782.53;;;28.98;36.05
18795;BME280;29610;49.022;12.114;2023-06-04T12:51:43;97778.03;;;29.86;35.67
18795;BME280;29610;49.022;12.114;2023-06-04T12:54:12;97787.94;;;29.62;33.96
18795;BME280;29610;49.022;12.114;2023-06-04T12:56:43;97788.56;;;29.13;35.29
18795;BME280;29610;49.022;12.114;2023-06-04T12:59:13;97791.28;;;27.25;36.13
18795;BME280;29610;49.022;12.114;2023-06-04T13:01:42;97789.28;;;28.20;38.97
18795;BME280;29610;49.022;12.114;2023-06-04T13:04:10;97782.44;;;29.02;34.90
18795;BME280;29610;49.022;12.114;2023-06-04T13:06:39;97787.59;;;28.23;34.71
18795;BME280;29610;49.022;12.114;2023-06-04T13:09:08;97783.72;;;28.69;34.02
18795;BME280;29610;49.022;12.114;2023-06-04T13:11:39;97775.09;;;29.08;34.55
18795;BME280;29610;49.022;12.114;2023-06-04T13:14:10;97780.91;;;28.20;33.22
18795;BME280;29610;49.022;12.114;2023-06-04T13:16:39;97767.81;;;28.82;33.53
18795;BME280;29610;49.022;12.114;2023-06-04T13:19:08;97767.41;;;29.94;34.20
18795;BME280;29610;49.022;12.114;2023-06-04T13:21:38;97768.28;;;31.13;31.50
18795;BME280;29610;49.022;12.114;2023-06-04T13:24:09;97767.47;;;31.47;31.80
18795;BME280;29610;49.022;12.114;2023-06-04T13:26:38;97762.34;;;29.76;33.52
18795;BME280;29610;49.022;12.114;2023-06-04T13:29:11;97770.75;;;29.07;34.33
18795;BME280;29610;49.022;12.114;2023-06-04T13:31:41;97762.53;;;28.84;33.31
18795;BME280;29610;49.022;12.114;2023-06-04T13:34:10;97765.28;;;28.71;34.29
18795;BME280;29610;49.022;12.114;2023-06-04T13:36:54;97764.06;;;28.40;34.04
18795;BME280;29610;49.022;12.114;2023-06-04T13:39:23;97761.50;;;28.78;34.61
18795;BME280;29610;49.022;12.114;2023-06-04T13:41:52;97762.38;;;29.60;33.94
18795;BME280;29610;49.022;12.114;2023-06-04T13:44:22;97771.44;;;27.79;34.84
18795;BME280;29610;49.022;12.114;2023-06-04T13:46:53;97762.53;;;27.48;35.48
18795;BME280;29610;49.022;12.114;2023-06-04T13:49:22;97764.97;;;26.61;36.43
18795;BME280;29610;49.022;12.114;2023-06-04T13:51:51;97765.28;;;27.87;35.67
18795;BME280;29610;49.022;12.114;2023-06-04T13:54:20;97758.44;;;27.72;35.59
18795;BME280;29610;49.022;12.114;2023-06-04T13:56:48;97745.38;;;28.37;34.38
18795;BME280;29610;49.022;12.114;2023-06-04T13:59:17;97752.00;;;29.04;33.79
18795;BME280;29610;49.022;12.114;2023-06-04T14:01:48;97755.94;;;28.61;33.00
18795;BME280;29610;49.022;12.114;2023-06-04T14:04:16;97747.44;;;28.01;33.65
18795;BME280;29610;49.022;12.114;2023-06-04T14:06:46;97746.34;;;27.59;34.55
18795;BME280;29610;49.022;12.114;2023-06-04T14:09:15;97751.56;;;28.77;35.41
18795;BME280;29610;49.022;12.114;2023-06-04T14:11:44;97747.28;;;28.40;33.34
18795;BME280;29610;49.022;12.114;2023-06-04T14:14:17;97746.72;;;28.77;34.46
18795;BME280;29610;49.022;12.114;2023-06-04T14:16:48;97756.69;;;27.98;34.91